M/y Kaiser — ZGAY5 — position and weather

sailwx.info

Track history (hours):
 
Tides and Currents Weather Stations Pressure Air Temp Water Temp Dewpoint Dewpoint Depression Visibility Wind Speed Wind Dir Waves Ship Positions

M/y Kaiser

Last reported at 2014-Nov-01 12:32 UTC. Time now 2014-Nov-01 13:07 UTC.
Position N 37°56' E 023°39'.

Length 60 m; draft 3.5 m.

Type: Pleasure craft. MMSI: 319022600.

Date/timePositionNaut miles runAvg speedWind from/ knotsBaromVisibWave heightAir tempDewpointWater temp
2014-Nov-01 12:32N 37°56' E 023°39'0 0.0
2014-Nov-01 11:32N 37°56' E 023°39'0 0.0
2014-Nov-01 10:32N 37°56' E 023°39'0 0.0
2014-Nov-01 09:32N 37°56' E 023°39'0 0.0
2014-Nov-01 08:32N 37°56' E 023°39'0 0.0
2014-Nov-01 07:32N 37°56' E 023°39'0 0.0
2014-Nov-01 06:32N 37°56' E 023°39'0 0.0
2014-Nov-01 05:32N 37°56' E 023°39'0 0.0
2014-Nov-01 04:32N 37°56' E 023°39'0 0.0
2014-Nov-01 03:32N 37°56' E 023°39'0 0.0
2014-Nov-01 02:32N 37°56' E 023°39'0 0.0
2014-Nov-01 01:32N 37°56' E 023°39'0 0.0
2014-Nov-01 00:29N 37°56' E 023°39'0 0.0
2014-Oct-31 23:32N 37°56' E 023°39'0 0.0
2014-Oct-31 22:32N 37°56' E 023°39'0 0.0
2014-Oct-31 21:32N 37°56' E 023°39'0 0.0
2014-Oct-31 20:32N 37°56' E 023°39'0 0.0
2014-Oct-31 19:32N 37°56' E 023°39'0 0.0
2014-Oct-31 18:32N 37°56' E 023°39'0 0.0
2014-Oct-31 17:32N 37°56' E 023°39'0 0.0
2014-Oct-31 16:32N 37°56' E 023°39'0 0.0
2014-Oct-31 15:32N 37°56' E 023°39'0 0.0
2014-Oct-31 14:33N 37°56' E 023°39'0 0.0
2014-Oct-31 13:33N 37°56' E 023°39'2 1.8
2014-Oct-31 12:33N 37°54' E 023°40'9 8.8
2014-Oct-31 11:33N 37°49' E 023°48'7 0.3
2014-Oct-30 14:08N 37°52' E 023°41'610.3
2014-Oct-30 13:33N 37°47' E 023°46'3 2.9
2014-Oct-30 12:32N 37°49' E 023°49'0 0.0
2014-Oct-30 11:29N 37°49' E 023°49'0 0.0
2014-Oct-30 10:20N 37°49' E 023°49'0 0.0
2014-Oct-30 09:32N 37°49' E 023°49'0 0.0
2014-Oct-30 08:32N 37°49' E 023°49'0 0.0
2014-Oct-30 04:32N 37°49' E 023°49'0 0.0
2014-Oct-30 03:08N 37°49' E 023°49'0 0.0
2014-Oct-30 01:26N 37°49' E 023°49'0 0.0
2014-Oct-30 00:23N 37°49' E 023°49'0 0.0
2014-Oct-29 23:08N 37°49' E 023°49'0 0.0
2014-Oct-29 22:14N 37°49' E 023°49'0 0.0
2014-Oct-29 19:05N 37°49' E 023°49'0 0.0
2014-Oct-29 18:11N 37°49' E 023°49'0 0.0
2014-Oct-29 16:23N 37°49' E 023°49'0 0.0
2014-Oct-29 15:29N 37°49' E 023°49'0 0.0
2014-Oct-29 14:32N 37°49' E 023°49'0 0.0
2014-Oct-29 12:32N 37°49' E 023°49'7 7.1
2014-Oct-29 11:32N 37°42' E 023°52'2612.2
2014-Oct-29 09:25N 37°22' E 024°12'1112.6
2014-Oct-29 08:31N 37°15' E 024°24'1313.4
2014-Oct-29 07:33N 37°14' E 024°40'1313.0
2014-Oct-29 06:33N 37°15' E 024°56'1413.6
2014-Oct-29 05:33N 37°15' E 025°13'1414.3
2014-Oct-29 04:33N 37°16' E 025°31'1513.7
2014-Oct-29 03:26N 37°13' E 025°50'1213.2
2014-Oct-29 02:33N 37°13' E 026°05'1313.0
2014-Oct-29 01:32N 37°14' E 026°22'  
Track history (hours):
 
Tides and Currents Weather Stations Pressure Air Temp Water Temp Dewpoint Dewpoint Depression Visibility Wind Speed Wind Dir Waves Ship Positions

M/y Kaiser

Last reported at 2014-Nov-01 12:32 UTC. Time now 2014-Nov-01 13:07 UTC.
Position N 37°56' E 023°39'.

Length 60 m; draft 3.5 m.

Type: Pleasure craft. MMSI: 319022600.

Date/timePositionNaut miles runAvg speedWind from/ knotsBaromVisibWave heightAir tempDewpointWater temp
2014-Nov-01 12:32N 37°56' E 023°39'0 0.0
2014-Nov-01 11:32N 37°56' E 023°39'0 0.0
2014-Nov-01 10:32N 37°56' E 023°39'0 0.0
2014-Nov-01 09:32N 37°56' E 023°39'0 0.0
2014-Nov-01 08:32N 37°56' E 023°39'0 0.0
2014-Nov-01 07:32N 37°56' E 023°39'0 0.0
2014-Nov-01 06:32N 37°56' E 023°39'0 0.0
2014-Nov-01 05:32N 37°56' E 023°39'0 0.0
2014-Nov-01 04:32N 37°56' E 023°39'0 0.0
2014-Nov-01 03:32N 37°56' E 023°39'0 0.0
2014-Nov-01 02:32N 37°56' E 023°39'0 0.0
2014-Nov-01 01:32N 37°56' E 023°39'0 0.0
2014-Nov-01 00:29N 37°56' E 023°39'0 0.0
2014-Oct-31 23:32N 37°56' E 023°39'0 0.0
2014-Oct-31 22:32N 37°56' E 023°39'0 0.0
2014-Oct-31 21:32N 37°56' E 023°39'0 0.0
2014-Oct-31 20:32N 37°56' E 023°39'0 0.0
2014-Oct-31 19:32N 37°56' E 023°39'0 0.0
2014-Oct-31 18:32N 37°56' E 023°39'0 0.0
2014-Oct-31 17:32N 37°56' E 023°39'0 0.0
2014-Oct-31 16:32N 37°56' E 023°39'0 0.0
2014-Oct-31 15:32N 37°56' E 023°39'0 0.0
2014-Oct-31 14:33N 37°56' E 023°39'0 0.0
2014-Oct-31 13:33N 37°56' E 023°39'2 1.8
2014-Oct-31 12:33N 37°54' E 023°40'9 8.8
2014-Oct-31 11:33N 37°49' E 023°48'7 0.3
2014-Oct-30 14:08N 37°52' E 023°41'610.3
2014-Oct-30 13:33N 37°47' E 023°46'3 2.9
2014-Oct-30 12:32N 37°49' E 023°49'0 0.0
2014-Oct-30 11:29N 37°49' E 023°49'0 0.0
2014-Oct-30 10:20N 37°49' E 023°49'0 0.0
2014-Oct-30 09:32N 37°49' E 023°49'0 0.0
2014-Oct-30 08:32N 37°49' E 023°49'0 0.0
2014-Oct-30 04:32N 37°49' E 023°49'0 0.0
2014-Oct-30 03:08N 37°49' E 023°49'0 0.0
2014-Oct-30 01:26N 37°49' E 023°49'0 0.0
2014-Oct-30 00:23N 37°49' E 023°49'0 0.0
2014-Oct-29 23:08N 37°49' E 023°49'0 0.0
2014-Oct-29 22:14N 37°49' E 023°49'0 0.0
2014-Oct-29 19:05N 37°49' E 023°49'0 0.0
2014-Oct-29 18:11N 37°49' E 023°49'0 0.0
2014-Oct-29 16:23N 37°49' E 023°49'0 0.0
2014-Oct-29 15:29N 37°49' E 023°49'0 0.0
2014-Oct-29 14:32N 37°49' E 023°49'0 0.0
2014-Oct-29 12:32N 37°49' E 023°49'7 7.1
2014-Oct-29 11:32N 37°42' E 023°52'2612.2
2014-Oct-29 09:25N 37°22' E 024°12'1112.6
2014-Oct-29 08:31N 37°15' E 024°24'1313.4
2014-Oct-29 07:33N 37°14' E 024°40'1313.0
2014-Oct-29 06:33N 37°15' E 024°56'1413.6
2014-Oct-29 05:33N 37°15' E 025°13'1414.3
2014-Oct-29 04:33N 37°16' E 025°31'1513.7
2014-Oct-29 03:26N 37°13' E 025°50'1213.2
2014-Oct-29 02:33N 37°13' E 026°05'1313.0
2014-Oct-29 01:32N 37°14' E 026°22'  

Dump ship's entire track history